Maui, HI

12:39 AM HST on December 07, 2016 (GMT -1000)
Wailuku | | Change Station

Elev 427 ft 20.88 °N, 156.51 °W | Updated 22 seconds ago

Partly Cloudy
Partly Cloudy
76.1 °F
Feels Like 76 °F
N
0.0
Wind Variable Wind from WSW
Gusts 0.0 mph

Today
High -- | Low -- °F
--% Chance of Precip.
Yesterday
High -- | Low -- °F
Precip. -- in
Pressure 29.99 in
Visibility 10.0 miles
Clouds Few 1600 ft
Heat Index 76 °F
Dew Point 74 °F
Humidity 93%
Rainfall 0.05 in
Snow Depth Not available.
6:50 AM 5:44 PM
Waxing Crescent, 51% visible
METAR PHOG 070954Z 12007KT 10SM FEW016 22/20 A2997 RMK AO2 SLP154 T02220200 402830217
Pressure 29.99 in
Visibility 10.0 miles
Clouds Few 1600 ft
Heat Index 76 °F
Dew Point 74 °F
Humidity 93%
Rainfall 0.05 in
Snow Depth Not available.
6:50 AM 5:44 PM
Waxing Crescent, 51% visible
METAR PHOG 070954Z 12007KT 10SM FEW016 22/20 A2997 RMK AO2 SLP154 T02220200 402830217

10-Day Weather Forecast

Almanac

Astronomy

Dec. 07, 2016 Rise Set
Actual Time
Civil Twilight
Nautical Twilight
Astronomical Twilight
Moon
Length of Visible Light
Length of Day
Tomorrow will be .
, % of the Moon is Illuminated

Today's Extremes

State Highs State Lows

Community

WunderPhotos

Upload Photos

1,956,111 photos uploaded!

WunderBlog® & News

Nearby

Air Quality

  Air Quality AQ Index Pollutant
Not available.

Snow Depth

Station Depth Elevation

Earthquake Activity

City Distance Mag. Time & Date
Minimum magnitude displayed is 2.5.

Coastal Water Temperatures

Place Temperature

Stations

Nearby Weather Stations

Station Location Temp. Windchill Dew Point Humidity Wind Precip. Elev Updated Type
                   

Watches & Warnings

There are currently no watches in effect.